sensor_id;sensor_type;location;lat;lon;timestamp;P1;durP1;ratioP1;P2;durP2;ratioP2
23317;SDS011;11831;55.918;37.746;2023-04-01T00:01:43;17.60;;;11.93;;
23317;SDS011;11831;55.918;37.746;2023-04-01T00:04:10;14.52;;;10.73;;
23317;SDS011;11831;55.918;37.746;2023-04-01T00:06:36;13.32;;;10.13;;
23317;SDS011;11831;55.918;37.746;2023-04-01T00:09:02;14.43;;;10.70;;
23317;SDS011;11831;55.918;37.746;2023-04-01T00:11:29;16.42;;;11.30;;
23317;SDS011;11831;55.918;37.746;2023-04-01T00:13:56;15.43;;;11.43;;
23317;SDS011;11831;55.918;37.746;2023-04-01T00:16:22;14.95;;;10.73;;
23317;SDS011;11831;55.918;37.746;2023-04-01T00:18:49;14.90;;;11.10;;
23317;SDS011;11831;55.918;37.746;2023-04-01T00:21:16;16.02;;;11.77;;
23317;SDS011;11831;55.918;37.746;2023-04-01T00:23:43;13.75;;;10.60;;
23317;SDS011;11831;55.918;37.746;2023-04-01T00:26:10;13.52;;;10.02;;
23317;SDS011;11831;55.918;37.746;2023-04-01T00:28:37;12.07;;;9.10;;
23317;SDS011;11831;55.918;37.746;2023-04-01T00:31:05;14.80;;;10.38;;
23317;SDS011;11831;55.918;37.746;2023-04-01T00:33:33;13.27;;;9.68;;
23317;SDS011;11831;55.918;37.746;2023-04-01T00:36:13;13.10;;;9.57;;
23317;SDS011;11831;55.918;37.746;2023-04-01T00:38:42;12.80;;;9.20;;
23317;SDS011;11831;55.918;37.746;2023-04-01T00:41:10;14.50;;;10.52;;
23317;SDS011;11831;55.918;37.746;2023-04-01T00:43:40;14.30;;;9.90;;
23317;SDS011;11831;55.918;37.746;2023-04-01T00:46:07;15.25;;;10.95;;
23317;SDS011;11831;55.918;37.746;2023-04-01T00:48:35;13.95;;;10.40;;
23317;SDS011;11831;55.918;37.746;2023-04-01T00:51:04;15.57;;;11.25;;
23317;SDS011;11831;55.918;37.746;2023-04-01T00:53:36;16.90;;;11.48;;
23317;SDS011;11831;55.918;37.746;2023-04-01T00:56:16;17.27;;;12.50;;
23317;SDS011;11831;55.918;37.746;2023-04-01T00:58:48;20.20;;;13.52;;
23317;SDS011;11831;55.918;37.746;2023-04-01T01:01:21;15.10;;;11.27;;
23317;SDS011;11831;55.918;37.746;2023-04-01T01:03:49;16.65;;;11.12;;
23317;SDS011;11831;55.918;37.746;2023-04-01T01:06:22;15.52;;;11.27;;
23317;SDS011;11831;55.918;37.746;2023-04-01T01:11:48;14.48;;;9.98;;
23317;SDS011;11831;55.918;37.746;2023-04-01T01:19:57;13.55;;;9.70;;
23317;SDS011;11831;55.918;37.746;2023-04-01T01:25:40;14.73;;;11.00;;
23317;SDS011;11831;55.918;37.746;2023-04-01T01:28:41;13.52;;;10.00;;
23317;SDS011;11831;55.918;37.746;2023-04-01T01:36:42;13.40;;;9.85;;
23317;SDS011;11831;55.918;37.746;2023-04-01T01:39:13;10.77;;;9.05;;
23317;SDS011;11831;55.918;37.746;2023-04-01T01:41:41;13.88;;;10.85;;
23317;SDS011;11831;55.918;37.746;2023-04-01T01:44:11;12.25;;;9.75;;
23317;SDS011;11831;55.918;37.746;2023-04-01T01:46:39;16.10;;;11.12;;
23317;SDS011;11831;55.918;37.746;2023-04-01T01:49:10;13.73;;;10.05;;
23317;SDS011;11831;55.918;37.746;2023-04-01T01:51:39;14.15;;;11.05;;
23317;SDS011;11831;55.918;37.746;2023-04-01T01:54:05;12.80;;;10.13;;
23317;SDS011;11831;55.918;37.746;2023-04-01T01:56:32;15.95;;;11.02;;
23317;SDS011;11831;55.918;37.746;2023-04-01T01:59:02;13.38;;;10.68;;
23317;SDS011;11831;55.918;37.746;2023-04-01T02:01:33;12.45;;;10.25;;
23317;SDS011;11831;55.918;37.746;2023-04-01T02:04:04;12.27;;;9.18;;
23317;SDS011;11831;55.918;37.746;2023-04-01T02:06:32;11.63;;;8.70;;
23317;SDS011;11831;55.918;37.746;2023-04-01T02:09:04;12.30;;;10.25;;
23317;SDS011;11831;55.918;37.746;2023-04-01T02:14:37;16.37;;;11.63;;
23317;SDS011;11831;55.918;37.746;2023-04-01T02:17:07;26.20;;;15.95;;
23317;SDS011;11831;55.918;37.746;2023-04-01T02:19:40;22.13;;;15.45;;
23317;SDS011;11831;55.918;37.746;2023-04-01T02:22:14;23.65;;;16.48;;
23317;SDS011;11831;55.918;37.746;2023-04-01T02:24:50;23.67;;;15.52;;
23317;SDS011;11831;55.918;37.746;2023-04-01T02:27:20;25.25;;;16.05;;
23317;SDS011;11831;55.918;37.746;2023-04-01T02:29:47;28.23;;;17.20;;
23317;SDS011;11831;55.918;37.746;2023-04-01T02:32:13;24.37;;;16.77;;
23317;SDS011;11831;55.918;37.746;2023-04-01T02:34:40;25.00;;;17.30;;
23317;SDS011;11831;55.918;37.746;2023-04-01T02:37:08;28.90;;;17.77;;
23317;SDS011;11831;55.918;37.746;2023-04-01T02:39:36;25.75;;;16.42;;
23317;SDS011;11831;55.918;37.746;2023-04-01T02:42:02;25.40;;;17.37;;
23317;SDS011;11831;55.918;37.746;2023-04-01T02:44:29;26.25;;;15.98;;
23317;SDS011;11831;55.918;37.746;2023-04-01T02:46:55;25.98;;;17.15;;
23317;SDS011;11831;55.918;37.746;2023-04-01T02:49:22;27.15;;;16.30;;
23317;SDS011;11831;55.918;37.746;2023-04-01T02:51:49;22.42;;;15.30;;
23317;SDS011;11831;55.918;37.746;2023-04-01T02:54:15;19.75;;;13.90;;
23317;SDS011;11831;55.918;37.746;2023-04-01T02:56:41;18.73;;;13.15;;
23317;SDS011;11831;55.918;37.746;2023-04-01T02:59:08;18.27;;;14.20;;
23317;SDS011;11831;55.918;37.746;2023-04-01T03:01:34;18.77;;;13.05;;
23317;SDS011;11831;55.918;37.746;2023-04-01T03:04:01;15.48;;;11.68;;
23317;SDS011;11831;55.918;37.746;2023-04-01T03:06:27;16.58;;;12.43;;
23317;SDS011;11831;55.918;37.746;2023-04-01T03:08:53;18.17;;;12.20;;
23317;SDS011;11831;55.918;37.746;2023-04-01T03:11:20;17.90;;;11.35;;
23317;SDS011;11831;55.918;37.746;2023-04-01T03:13:47;19.42;;;12.65;;
23317;SDS011;11831;55.918;37.746;2023-04-01T03:16:14;19.48;;;13.57;;
23317;SDS011;11831;55.918;37.746;2023-04-01T03:18:41;24.70;;;15.68;;
23317;SDS011;11831;55.918;37.746;2023-04-01T03:21:17;24.00;;;15.82;;
23317;SDS011;11831;55.918;37.746;2023-04-01T03:23:45;22.15;;;14.90;;
23317;SDS011;11831;55.918;37.746;2023-04-01T03:26:11;19.67;;;13.02;;
23317;SDS011;11831;55.918;37.746;2023-04-01T03:28:39;18.27;;;13.70;;
23317;SDS011;11831;55.918;37.746;2023-04-01T03:31:05;19.00;;;13.02;;
23317;SDS011;11831;55.918;37.746;2023-04-01T03:33:32;18.55;;;12.30;;
23317;SDS011;11831;55.918;37.746;2023-04-01T03:35:59;15.30;;;11.48;;
23317;SDS011;11831;55.918;37.746;2023-04-01T03:38:25;17.10;;;11.80;;
23317;SDS011;11831;55.918;37.746;2023-04-01T03:41:25;20.23;;;12.20;;
23317;SDS011;11831;55.918;37.746;2023-04-01T03:43:53;17.80;;;11.98;;
23317;SDS011;11831;55.918;37.746;2023-04-01T03:46:20;19.67;;;13.93;;
23317;SDS011;11831;55.918;37.746;2023-04-01T03:48:47;18.65;;;13.62;;
23317;SDS011;11831;55.918;37.746;2023-04-01T03:51:13;19.12;;;13.38;;
23317;SDS011;11831;55.918;37.746;2023-04-01T03:53:40;19.05;;;13.38;;
23317;SDS011;11831;55.918;37.746;2023-04-01T03:56:07;22.20;;;14.13;;
23317;SDS011;11831;55.918;37.746;2023-04-01T03:58:34;19.77;;;12.88;;
23317;SDS011;11831;55.918;37.746;2023-04-01T04:01:02;17.33;;;12.20;;
23317;SDS011;11831;55.918;37.746;2023-04-01T04:03:28;21.15;;;13.10;;
23317;SDS011;11831;55.918;37.746;2023-04-01T04:05:55;16.80;;;12.23;;
23317;SDS011;11831;55.918;37.746;2023-04-01T04:08:22;18.73;;;12.70;;
23317;SDS011;11831;55.918;37.746;2023-04-01T04:10:54;18.15;;;12.20;;
23317;SDS011;11831;55.918;37.746;2023-04-01T04:13:21;19.75;;;13.57;;
23317;SDS011;11831;55.918;37.746;2023-04-01T04:15:48;20.00;;;13.25;;
23317;SDS011;11831;55.918;37.746;2023-04-01T04:18:14;23.48;;;14.43;;
23317;SDS011;11831;55.918;37.746;2023-04-01T04:20:44;20.55;;;12.88;;
23317;SDS011;11831;55.918;37.746;2023-04-01T04:23:14;20.42;;;12.77;;
23317;SDS011;11831;55.918;37.746;2023-04-01T04:25:40;19.67;;;13.85;;
23317;SDS011;11831;55.918;37.746;2023-04-01T04:28:07;23.70;;;14.68;;
23317;SDS011;11831;55.918;37.746;2023-04-01T04:30:33;22.70;;;14.30;;
23317;SDS011;11831;55.918;37.746;2023-04-01T04:33:00;21.55;;;14.85;;
23317;SDS011;11831;55.918;37.746;2023-04-01T04:35:26;26.73;;;16.42;;
23317;SDS011;11831;55.918;37.746;2023-04-01T04:37:53;25.20;;;16.77;;
23317;SDS011;11831;55.918;37.746;2023-04-01T04:40:19;25.42;;;16.10;;
23317;SDS011;11831;55.918;37.746;2023-04-01T04:42:45;25.62;;;16.45;;
23317;SDS011;11831;55.918;37.746;2023-04-01T04:45:11;24.37;;;16.02;;
23317;SDS011;11831;55.918;37.746;2023-04-01T04:47:38;27.98;;;16.12;;
23317;SDS011;11831;55.918;37.746;2023-04-01T04:50:05;29.12;;;16.10;;
23317;SDS011;11831;55.918;37.746;2023-04-01T04:52:32;30.73;;;16.92;;
23317;SDS011;11831;55.918;37.746;2023-04-01T04:54:58;25.50;;;15.73;;
23317;SDS011;11831;55.918;37.746;2023-04-01T04:57:25;27.33;;;15.65;;
23317;SDS011;11831;55.918;37.746;2023-04-01T04:59:52;25.17;;;17.00;;
23317;SDS011;11831;55.918;37.746;2023-04-01T05:02:18;26.77;;;16.87;;
23317;SDS011;11831;55.918;37.746;2023-04-01T05:04:44;27.62;;;16.95;;
23317;SDS011;11831;55.918;37.746;2023-04-01T05:07:11;36.42;;;18.62;;
23317;SDS011;11831;55.918;37.746;2023-04-01T05:09:37;26.23;;;18.42;;
23317;SDS011;11831;55.918;37.746;2023-04-01T05:12:04;25.70;;;16.83;;
23317;SDS011;11831;55.918;37.746;2023-04-01T05:14:31;27.75;;;17.65;;
23317;SDS011;11831;55.918;37.746;2023-04-01T05:16:57;29.73;;;18.15;;
23317;SDS011;11831;55.918;37.746;2023-04-01T05:19:23;29.55;;;18.10;;
23317;SDS011;11831;55.918;37.746;2023-04-01T05:21:50;27.85;;;17.80;;
23317;SDS011;11831;55.918;37.746;2023-04-01T05:24:16;30.58;;;18.42;;
23317;SDS011;11831;55.918;37.746;2023-04-01T05:26:42;27.55;;;17.77;;
23317;SDS011;11831;55.918;37.746;2023-04-01T05:29:09;26.48;;;17.75;;
23317;SDS011;11831;55.918;37.746;2023-04-01T05:31:36;25.52;;;18.48;;
23317;SDS011;11831;55.918;37.746;2023-04-01T05:34:02;29.05;;;18.95;;
23317;SDS011;11831;55.918;37.746;2023-04-01T05:36:29;24.40;;;16.83;;
23317;SDS011;11831;55.918;37.746;2023-04-01T05:38:55;27.92;;;18.37;;
23317;SDS011;11831;55.918;37.746;2023-04-01T05:41:22;26.45;;;17.27;;
23317;SDS011;11831;55.918;37.746;2023-04-01T05:43:48;33.05;;;17.67;;
23317;SDS011;11831;55.918;37.746;2023-04-01T05:46:17;30.92;;;18.92;;
23317;SDS011;11831;55.918;37.746;2023-04-01T05:48:44;29.15;;;17.95;;
23317;SDS011;11831;55.918;37.746;2023-04-01T05:51:13;27.60;;;17.92;;
23317;SDS011;11831;55.918;37.746;2023-04-01T05:53:41;32.33;;;18.55;;
23317;SDS011;11831;55.918;37.746;2023-04-01T05:56:07;26.83;;;17.25;;
23317;SDS011;11831;55.918;37.746;2023-04-01T05:58:35;29.55;;;18.62;;
23317;SDS011;11831;55.918;37.746;2023-04-01T06:01:04;24.25;;;16.17;;
23317;SDS011;11831;55.918;37.746;2023-04-01T06:03:32;28.92;;;18.20;;
23317;SDS011;11831;55.918;37.746;2023-04-01T06:05:58;25.02;;;16.23;;
23317;SDS011;11831;55.918;37.746;2023-04-01T06:08:27;24.77;;;17.17;;
23317;SDS011;11831;55.918;37.746;2023-04-01T06:11:10;25.23;;;16.50;;
23317;SDS011;11831;55.918;37.746;2023-04-01T06:16:49;21.20;;;16.12;;
23317;SDS011;11831;55.918;37.746;2023-04-01T06:33:32;24.30;;;16.12;;
23317;SDS011;11831;55.918;37.746;2023-04-01T06:59:15;25.77;;;15.52;;
23317;SDS011;11831;55.918;37.746;2023-04-01T07:01:41;18.80;;;14.68;;
23317;SDS011;11831;55.918;37.746;2023-04-01T07:04:22;20.42;;;15.93;;
23317;SDS011;11831;55.918;37.746;2023-04-01T07:09:34;17.90;;;14.73;;
23317;SDS011;11831;55.918;37.746;2023-04-01T07:12:10;21.77;;;16.10;;
23317;SDS011;11831;55.918;37.746;2023-04-01T07:14:42;20.30;;;14.80;;
23317;SDS011;11831;55.918;37.746;2023-04-01T07:17:43;18.77;;;13.98;;
23317;SDS011;11831;55.918;37.746;2023-04-01T07:20:11;21.23;;;15.88;;
23317;SDS011;11831;55.918;37.746;2023-04-01T07:22:49;19.40;;;15.23;;
23317;SDS011;11831;55.918;37.746;2023-04-01T07:25:35;17.17;;;14.32;;
23317;SDS011;11831;55.918;37.746;2023-04-01T07:28:15;17.87;;;13.98;;
23317;SDS011;11831;55.918;37.746;2023-04-01T07:33:44;20.65;;;14.55;;
23317;SDS011;11831;55.918;37.746;2023-04-01T07:36:26;19.50;;;14.87;;
23317;SDS011;11831;55.918;37.746;2023-04-01T07:39:08;20.33;;;14.98;;
23317;SDS011;11831;55.918;37.746;2023-04-01T07:42:00;18.48;;;14.27;;
23317;SDS011;11831;55.918;37.746;2023-04-01T07:44:44;16.02;;;13.55;;
23317;SDS011;11831;55.918;37.746;2023-04-01T07:47:23;20.73;;;14.25;;
23317;SDS011;11831;55.918;37.746;2023-04-01T07:50:13;16.65;;;12.68;;
23317;SDS011;11831;55.918;37.746;2023-04-01T07:55:58;17.23;;;13.18;;
23317;SDS011;11831;55.918;37.746;2023-04-01T08:04:12;17.33;;;12.23;;
23317;SDS011;11831;55.918;37.746;2023-04-01T08:06:45;12.82;;;10.63;;
23317;SDS011;11831;55.918;37.746;2023-04-01T08:09:41;12.27;;;10.13;;
23317;SDS011;11831;55.918;37.746;2023-04-01T08:20:50;8.70;;;7.62;;
23317;SDS011;11831;55.918;37.746;2023-04-01T08:23:22;10.65;;;8.15;;
23317;SDS011;11831;55.918;37.746;2023-04-01T08:28:42;10.95;;;8.88;;
23317;SDS011;11831;55.918;37.746;2023-04-01T08:33:46;11.50;;;9.15;;
23317;SDS011;11831;55.918;37.746;2023-04-01T08:36:15;10.35;;;9.30;;
23317;SDS011;11831;55.918;37.746;2023-04-01T09:01:26;12.20;;;9.95;;
23317;SDS011;11831;55.918;37.746;2023-04-01T09:06:40;11.95;;;10.20;;
23317;SDS011;11831;55.918;37.746;2023-04-01T09:12:33;12.93;;;10.30;;
23317;SDS011;11831;55.918;37.746;2023-04-01T09:23:35;12.25;;;10.70;;
23317;SDS011;11831;55.918;37.746;2023-04-01T09:43:25;13.05;;;10.07;;
23317;SDS011;11831;55.918;37.746;2023-04-01T09:46:24;13.55;;;10.77;;
23317;SDS011;11831;55.918;37.746;2023-04-01T09:49:15;13.15;;;10.07;;
23317;SDS011;11831;55.918;37.746;2023-04-01T09:52:08;13.88;;;9.32;;
23317;SDS011;11831;55.918;37.746;2023-04-01T10:06:10;15.50;;;10.18;;
23317;SDS011;11831;55.918;37.746;2023-04-01T10:09:07;14.63;;;9.00;;
23317;SDS011;11831;55.918;37.746;2023-04-01T10:26:18;12.80;;;9.25;;
23317;SDS011;11831;55.918;37.746;2023-04-01T10:32:06;14.77;;;9.27;;
23317;SDS011;11831;55.918;37.746;2023-04-01T11:12:01;19.33;;;15.15;;
23317;SDS011;11831;55.918;37.746;2023-04-01T11:14:59;16.02;;;13.75;;
23317;SDS011;11831;55.918;37.746;2023-04-01T11:26:12;18.27;;;13.95;;
23317;SDS011;11831;55.918;37.746;2023-04-01T11:39:59;10.67;;;7.33;;
23317;SDS011;11831;55.918;37.746;2023-04-01T11:45:32;12.80;;;7.10;;
23317;SDS011;11831;55.918;37.746;2023-04-01T11:59:22;13.82;;;7.97;;
23317;SDS011;11831;55.918;37.746;2023-04-01T12:13:19;13.90;;;7.85;;
23317;SDS011;11831;55.918;37.746;2023-04-01T12:24:40;13.88;;;7.93;;
23317;SDS011;11831;55.918;37.746;2023-04-01T12:30:19;15.25;;;7.43;;
23317;SDS011;11831;55.918;37.746;2023-04-01T12:33:04;12.37;;;7.28;;
23317;SDS011;11831;55.918;37.746;2023-04-01T12:35:47;9.13;;;7.18;;
23317;SDS011;11831;55.918;37.746;2023-04-01T12:41:09;11.65;;;7.22;;
23317;SDS011;11831;55.918;37.746;2023-04-01T12:57:34;12.50;;;6.62;;
23317;SDS011;11831;55.918;37.746;2023-04-01T13:11:39;11.95;;;5.95;;
23317;SDS011;11831;55.918;37.746;2023-04-01T13:14:25;14.07;;;6.65;;
23317;SDS011;11831;55.918;37.746;2023-04-01T13:17:09;9.35;;;5.37;;
23317;SDS011;11831;55.918;37.746;2023-04-01T13:19:47;15.00;;;5.57;;
23317;SDS011;11831;55.918;37.746;2023-04-01T13:27:34;10.50;;;5.85;;
23317;SDS011;11831;55.918;37.746;2023-04-01T13:36:30;11.60;;;6.72;;
23317;SDS011;11831;55.918;37.746;2023-04-01T13:42:24;13.05;;;6.70;;
23317;SDS011;11831;55.918;37.746;2023-04-01T13:47:33;16.75;;;7.00;;
23317;SDS011;11831;55.918;37.746;2023-04-01T14:04:04;11.27;;;7.12;;
